M I D A S
Marine Information and Data Acquisition System
Tripno 1622 of the Zeeleeuw from 2008-12-18 08:26:27 to 2008-12-18 15:57:38
Back to CruiseResearch ActivitiesStationsMapUnderway DataData graphs

EquipmentUnitsComment
TimeDGPSUTC
LatitudeDGPSDM.mWGS84
LongitudeDGPSDM.mWGS84
TemperatureSBE03/SBE38deg celciusITS90
ConductivitySBE21S/mITS90
SalinitySBE21 Practical Salinity Units
ChlorophylAChelsea fluorimeterg/lCalibrated in Aceton
Missing or incorrect values are displayed as -999
Sea surface data collected by the RV Zeeleeuw from 2008-12-18 08:28:12 to 2008-12-18 16:00:09
Time Latitude Longitude Temperature Conductivity Salinity ChlorophylA
2008-12-18 08:29:17 51°13.676 2°55.889 -999 0.067523 0.373001 -1.035392
2008-12-18 08:30:17 51°13.695 2°55.783 -999 0.067523 0.373021 -1.035392
2008-12-18 08:31:17 51°13.701 2°55.734 -999 0.067523 0.373027 -1.070216
2008-12-18 08:32:17 51°13.702 2°55.721 -999 0.067523 0.373027 -1.035392
2008-12-18 08:33:17 51°13.788 2°55.663 -999 0.067523 0.373047 -1.035392
2008-12-18 08:34:17 51°13.908 2°55.581 -999 0.067523 0.373068 -1.035392
2008-12-18 08:35:17 51°14.044 2°55.485 -999 0.067523 0.373094 -1.035392
2008-12-18 08:36:17 51°14.176 2°55.372 -999 0.067523 0.373121 -1.035392
2008-12-18 08:37:17 51°14.292 2°55.204 -999 0.067523 0.373114 -1.035392
2008-12-18 08:38:17 51°14.401 2°55.013 -999 0.067523 0.373121 -1.035392
2008-12-18 08:39:17 51°14.502 2°54.762 -999 0.067523 0.373148 -1.035392
2008-12-18 08:40:17 51°14.489 2°54.46 -999 0.067523 0.373141 -1.035392
2008-12-18 08:41:17 51°14.398 2°54.171 -999 0.067523 0.373161 -1.035392
2008-12-18 08:42:17 51°14.296 2°53.889 -999 0.067523 0.373188 -1.035392
2008-12-18 08:43:17 51°14.202 2°53.6 -999 0.067523 0.373208 -1.035392
2008-12-18 08:44:17 51°14.106 2°53.312 -999 0.067523 0.373235 -1.035392
2008-12-18 08:45:17 51°14.009 2°53.028 -999 0.067523 0.373275 -1.035392
2008-12-18 08:46:17 51°13.912 2°52.739 -999 0.067523 0.373315 -1.070216
2008-12-18 08:47:17 51°13.812 2°52.442 -999 0.067523 0.373335 -1.035392
2008-12-18 08:48:17 51°13.714 2°52.142 -999 0.067523 0.373362 -1.035392
2008-12-18 08:49:17 51°13.619 2°51.856 -999 0.067524 0.373389 -1.035392
2008-12-18 08:50:17 51°13.539 2°51.63 -999 0.067524 0.373402 -1.035392
2008-12-18 08:51:17 51°13.486 2°51.485 -999 0.067524 0.373429 -1.035392
2008-12-18 08:52:17 51°13.465 2°51.446 -999 0.067524 0.373429 -1.035392
2008-12-18 08:53:17 51°13.459 2°51.434 -999 0.067524 0.373443 -1.035392
2008-12-18 08:54:17 51°13.457 2°51.426 -999 0.067524 0.373463 -1.035392
2008-12-18 08:55:17 51°13.456 2°51.419 -999 0.067524 0.37347 -1.035392
2008-12-18 08:56:17 51°13.457 2°51.412 -999 0.067524 0.373476 -1.035392
2008-12-18 08:57:17 51°13.457 2°51.405 -999 0.067524 0.37349 -1.035392
2008-12-18 08:58:17 51°13.458 2°51.399 -999 0.067524 0.37351 -1.035392
2008-12-18 08:59:17 51°13.459 2°51.393 -999 0.067524 0.373523 -1.035392
2008-12-18 09:00:17 51°13.466 2°51.458 -999 0.067524 0.37353 -1.035392
2008-12-18 09:01:17 51°13.506 2°51.551 -999 0.067626 0.374131 -1.035392
2008-12-18 09:02:17 51°13.524 2°51.556 -999 0.067626 0.374138 -1.035392
2008-12-18 09:03:17 51°13.533 2°51.543 -999 0.067626 0.374151 -1.035392
2008-12-18 09:04:17 51°13.541 2°51.527 -999 0.067626 0.374172 -1.035392
2008-12-18 09:05:17 51°13.548 2°51.51 -999 0.067626 0.374185 -1.000568
2008-12-18 09:06:17 51°13.554 2°51.492 -999 0.067626 0.374205 -1.035392
2008-12-18 09:07:17 51°13.604 2°51.487 -999 0.067626 0.374279 -1.035392
2008-12-18 09:08:17 51°13.674 2°51.645 -999 0.067626 0.374246 -1.035392
2008-12-18 09:09:17 51°13.764 2°51.909 -999 0.067626 0.374239 -1.035392
2008-12-18 09:10:17 51°13.854 2°52.176 -999 0.067626 0.374273 -1.035392
2008-12-18 09:11:17 51°13.938 2°52.447 -999 0.067626 0.374279 -1.000568
2008-12-18 09:12:17 51°14.027 2°52.713 -999 0.067626 0.374286 -1.000568
2008-12-18 09:13:17 51°14.111 2°52.984 -999 0.067626 0.374306 -1.035392
2008-12-18 09:14:17 51°14.198 2°53.253 -999 0.067626 0.374326 -1.035392
2008-12-18 09:15:17 51°14.285 2°53.519 -999 0.067626 0.37436 -1.035392
2008-12-18 09:16:17 51°14.406 2°53.744 -999 0.067626 0.374394 -1.035392
2008-12-18 09:17:17 51°14.589 2°53.803 -999 0.067626 0.3744 -0.93092
2008-12-18 09:18:17 51°14.774 2°53.699 -999 0.067626 0.374427 -0.93092
2008-12-18 09:19:17 51°14.893 2°53.439 -999 0.067626 0.374448 -0.965744
2008-12-18 09:20:17 51°14.908 2°53.109 -999 0.067626 0.374461 -0.965744
2008-12-18 09:21:17 51°14.871 2°52.781 -999 0.067626 0.374488 -0.965744
2008-12-18 09:22:17 51°14.82 2°52.458 -999 0.067626 0.374515 -0.965744
2008-12-18 09:23:17 51°14.761 2°52.137 -999 0.067626 0.374542 -0.965744
2008-12-18 09:24:17 51°14.723 2°51.805 -999 0.067626 0.374549 -0.965744
2008-12-18 09:25:17 51°14.698 2°51.466 -999 0.067626 0.374569 -0.965744
2008-12-18 09:26:17 51°14.668 2°51.127 -999 0.067626 0.374589 -0.965744
2008-12-18 09:27:17 51°14.631 2°50.789 -999 0.067626 0.374609 -0.965744
2008-12-18 09:28:17 51°14.593 2°50.451 -999 0.067626 0.374636 -0.965744
2008-12-18 09:29:17 51°14.555 2°50.112 -999 0.067626 0.374657 -0.93092
2008-12-18 09:30:17 51°14.515 2°49.774 -999 0.067626 0.374677 -0.93092
2008-12-18 09:31:17 51°14.472 2°49.436 -999 0.067626 0.37471 -0.93092
2008-12-18 09:32:17 51°14.435 2°49.097 -999 0.067626 0.374737 -0.93092
2008-12-18 09:33:17 51°14.399 2°48.756 -999 0.067626 0.374758 -0.93092
2008-12-18 09:34:17 51°14.362 2°48.418 -999 0.067524 0.374196 -0.373735
2008-12-18 09:35:17 51°14.325 2°48.079 -999 3.420257 33.678722 0.636162
2008-12-18 09:36:17 51°14.288 2°47.74 -999 3.385872 33.721038 0.496866
2008-12-18 09:37:17 51°14.252 2°47.403 -999 3.390327 33.818623 0.462042
2008-12-18 09:38:17 51°14.216 2°47.069 -999 3.40897 33.936438 0.462042
2008-12-18 09:39:17 51°14.174 2°46.74 -999 3.417775 34.00485 0.496866
2008-12-18 09:40:17 51°14.133 2°46.41 -999 3.41736 33.969528 0.53169
2008-12-18 09:41:17 51°14.063 2°46.092 -999 3.410419 33.852119 0.427218
2008-12-18 09:42:17 51°13.935 2°45.832 -999 3.435383 34.078944 0.427218
2008-12-18 09:43:17 51°13.776 2°45.622 -999 3.437973 34.080479 0.462042
2008-12-18 09:44:17 51°13.615 2°45.423 -999 3.268012 32.20841 0.496866
2008-12-18 09:45:17 51°13.455 2°45.215 -999 3.439009 34.081651 0.496866
2008-12-18 09:46:17 51°13.299 2°44.985 -999 3.438594 34.07802 0.496866
2008-12-18 09:47:17 51°13.143 2°44.754 -999 3.43704 34.062774 0.462042
2008-12-18 09:48:17 51°12.985 2°44.525 -999 3.436833 34.061423 0.427218
2008-12-18 09:49:17 51°12.827 2°44.294 -999 3.435797 34.053737 0.427218
2008-12-18 09:50:17 51°12.668 2°44.064 -999 3.434969 34.048331 0.427218
2008-12-18 09:51:17 51°12.508 2°43.839 -999 3.433311 34.044025 0.427218
2008-12-18 09:52:17 51°12.345 2°43.624 -999 3.430929 34.029868 0.462042
2008-12-18 09:53:17 51°12.188 2°43.399 -999 3.428443 34.009915 0.496866
2008-12-18 09:54:17 51°12.034 2°43.17 -999 3.427304 34.001077 0.53169
2008-12-18 09:55:17 51°11.865 2°42.979 -999 3.423885 33.975487 0.601338
2008-12-18 09:56:17 51°11.68 2°42.842 -999 3.421399 33.96202 0.70581
2008-12-18 09:57:17 51°11.487 2°42.719 -999 3.416117 33.92049 0.775459
2008-12-18 09:58:17 51°11.292 2°42.605 -999 3.413734 33.919286 0.670986
2008-12-18 09:59:17 51°11.092 2°42.519 -999 3.408659 33.919967 0.53169
2008-12-18 10:00:17 51°10.889 2°42.449 -999 3.391052 33.877017 0.496866
2008-12-18 10:01:17 51°10.686 2°42.411 -999 3.373756 33.812056 0.496866
2008-12-18 10:02:17 51°10.486 2°42.393 -999 3.345793 33.615645 0.53169
2008-12-18 10:03:17 51°10.316 2°42.445 -999 3.324976 33.431985 0.53169
2008-12-18 10:04:17 51°10.237 2°42.559 -999 3.307577 33.262065 0.636162
2008-12-18 10:05:17 51°10.168 2°42.645 -999 3.298982 33.198577 0.636162
2008-12-18 10:06:17 51°10.124 2°42.691 -999 3.301054 33.241153 0.670986
2008-12-18 10:07:17 51°10.107 2°42.686 -999 3.297947 33.230564 0.670986
2008-12-18 10:08:18 51°10.1 2°42.674 -999 3.294323 33.204899 0.636162
2008-12-18 10:09:17 51°10.094 2°42.662 -999 3.292873 33.20075 0.636162
2008-12-18 10:10:18 51°10.092 2°42.651 -999 3.292873 33.201678 0.636162
2008-12-18 10:11:18 51°10.091 2°42.639 -999 3.292977 33.20562 0.670986
2008-12-18 10:12:18 51°10.09 2°42.628 -999 3.29308 33.211418 0.670986
2008-12-18 10:13:18 51°10.084 2°42.621 -999 3.292977 33.21583 0.670986
2008-12-18 10:14:18 51°10.037 2°42.592 -999 3.293184 33.213505 0.740634
2008-12-18 10:15:18 51°10.021 2°42.471 -999 3.289663 33.203829 0.810283
2008-12-18 10:16:18 51°10.051 2°42.211 -999 3.292459 33.244426 0.845107
2008-12-18 10:17:18 51°10.098 2°41.902 -999 3.297741 33.282145 0.845107
2008-12-18 10:18:18 51°10.112 2°41.574 -999 3.303022 33.290989 0.810283
2008-12-18 10:19:18 51°10.094 2°41.24 -999 3.306542 33.28203 0.810283
2008-12-18 10:20:18 51°10.048 2°40.909 -999 3.311513 33.297615 0.810283
2008-12-18 10:21:18 51°10.002 2°40.578 -999 3.307267 33.241012 0.775459
2008-12-18 10:22:18 51°9.957 2°40.246 -999 3.292872 33.116555 0.775459
2008-12-18 10:23:18 51°9.949 2°39.904 -999 3.307681 33.223437 0.775459
2008-12-18 10:24:18 51°9.936 2°39.563 -999 3.316897 33.268769 0.740634
2008-12-18 10:25:18 51°9.914 2°39.22 -999 3.318761 33.258119 0.740634
2008-12-18 10:26:18 51°9.89 2°38.876 -999 3.314308 33.215994 0.775459
2008-12-18 10:27:18 51°9.866 2°38.53 -999 3.314722 33.220599 0.775459
2008-12-18 10:28:18 51°9.842 2°38.181 -999 3.318968 33.266879 0.70581
2008-12-18 10:29:18 51°9.818 2°37.83 -999 3.315551 33.256562 0.740634
2008-12-18 10:30:18 51°9.794 2°37.485 -999 3.317829 33.287456 0.740634
2008-12-18 10:31:18 51°9.756 2°37.301 -999 3.3257 33.351909 0.70581
2008-12-18 10:32:18 51°9.716 2°37.217 -999 3.341752 33.465557 0.636162
2008-12-18 10:33:18 51°9.683 2°37.175 -999 3.34807 33.504221 0.636162
2008-12-18 10:34:17 51°9.66 2°37.15 -999 3.350866 33.521364 0.566514
2008-12-18 10:35:18 51°9.624 2°37.135 -999 3.352523 33.528635 0.53169
2008-12-18 10:36:18 51°9.575 2°37.12 -999 3.355733 33.548505 0.496866
2008-12-18 10:37:18 51°9.523 2°37.076 -999 3.359151 33.566953 0.53169
2008-12-18 10:38:18 51°9.479 2°37.002 -999 3.355009 33.546023 0.566514
2008-12-18 10:39:18 51°9.449 2°36.924 -999 3.355112 33.548099 0.566514
2008-12-18 10:40:18 51°9.431 2°36.855 -999 3.355009 33.546023 0.53169
2008-12-18 10:41:17 51°9.419 2°36.795 -999 3.356251 33.560741 0.53169
2008-12-18 10:42:18 51°9.409 2°36.738 -999 3.35708 33.566225 0.496866
2008-12-18 10:43:18 51°9.398 2°36.685 -999 3.358219 33.574229 0.496866
2008-12-18 10:44:18 51°9.388 2°36.631 -999 3.360187 33.585857 0.462042
2008-12-18 10:45:18 51°9.376 2°36.561 -999 3.361844 33.598672 0.462042
2008-12-18 10:46:18 51°9.365 2°36.476 -999 3.364433 33.614399 0.462042
2008-12-18 10:47:18 51°9.355 2°36.392 -999 3.367023 33.635686 0.427218
2008-12-18 10:48:18 51°9.347 2°36.313 -999 3.369197 33.647732 0.427218
2008-12-18 10:49:18 51°9.342 2°36.235 -999 3.371787 33.662508 0.427218
2008-12-18 10:50:18 51°9.338 2°36.16 -999 3.373755 33.675031 0.392394
2008-12-18 10:51:18 51°9.332 2°36.085 -999 3.375515 33.685255 0.392394
2008-12-18 10:52:18 51°9.327 2°36.012 -999 3.377172 33.694328 0.427218
2008-12-18 10:53:18 51°9.319 2°35.937 -999 3.37883 33.706182 0.392394
2008-12-18 10:54:18 51°9.306 2°35.857 -999 3.381937 33.724802 0.392394
2008-12-18 10:55:18 51°9.293 2°35.774 -999 3.389601 33.768764 0.392394
2008-12-18 10:56:18 51°9.283 2°35.688 -999 3.392087 33.775832 0.392394
2008-12-18 10:57:18 51°9.273 2°35.601 -999 3.395712 33.793629 0.35757
2008-12-18 10:58:18 51°9.26 2°35.515 -999 3.39913 33.809123 0.35757
2008-12-18 10:59:18 51°9.247 2°35.429 -999 3.402755 33.82689 0.35757
2008-12-18 11:00:18 51°9.233 2°35.343 -999 3.402133 33.818176 0.35757
2008-12-18 11:01:18 51°9.221 2°35.256 -999 3.403894 33.826484 0.392394
2008-12-18 11:02:18 51°9.209 2°35.169 -999 3.407105 33.844296 0.392394
2008-12-18 11:03:18 51°9.197 2°35.082 -999 3.409695 33.858951 0.427218
2008-12-18 11:04:18 51°9.185 2°34.995 -999 3.411559 33.866531 0.427218
2008-12-18 11:05:18 51°9.179 2°34.91 -999 3.414045 33.878177 0.427218
2008-12-18 11:06:18 51°9.19 2°34.836 -999 3.415806 33.888313 0.462042
2008-12-18 11:07:18 51°9.2 2°34.782 -999 3.417877 33.900016 0.496866
2008-12-18 11:08:18 51°9.206 2°34.736 -999 3.419534 33.90715 0.462042
2008-12-18 11:09:18 51°9.215 2°34.679 -999 3.421399 33.915636 0.462042
2008-12-18 11:10:18 51°9.261 2°34.623 -999 3.422953 33.919772 0.496866
2008-12-18 11:11:18 51°9.328 2°34.683 -999 3.422534 33.585282 0.70581
2008-12-18 11:12:18 51°9.438 2°34.837 -999 3.434967 33.861651 0.70581
2008-12-18 11:13:18 51°9.568 2°35.029 -999 3.428545 33.885139 0.70581
2008-12-18 11:14:18 51°9.704 2°35.227 -999 3.426577 33.897674 0.636162
2008-12-18 11:15:18 51°9.851 2°35.406 -999 3.424713 33.886422 0.566514
2008-12-18 11:16:18 51°10.01 2°35.56 -999 3.420673 33.855874 0.53169
2008-12-18 11:17:18 51°10.171 2°35.708 -999 3.415494 33.820164 0.496866
2008-12-18 11:18:18 51°10.329 2°35.863 -999 3.417048 33.84002 0.496866
2008-12-18 11:19:18 51°10.484 2°36.022 -999 3.444187 33.9986 0.427218
2008-12-18 11:20:18 51°10.637 2°36.184 -999 3.466147 34.130135 0.392394
2008-12-18 11:21:18 51°10.789 2°36.346 -999 3.472155 34.159815 0.392394
2008-12-18 11:22:18 51°10.939 2°36.51 -999 3.471016 34.157519 0.35757
2008-12-18 11:23:18 51°11.091 2°36.674 -999 3.466355 34.137023 0.392394
2008-12-18 11:24:18 51°11.247 2°36.829 -999 3.462833 34.134534 0.462042
2008-12-18 11:25:18 51°11.404 2°36.981 -999 3.463972 34.150718 0.427218
2008-12-18 11:26:18 51°11.569 2°37.11 -999 3.467391 34.173345 0.392394
2008-12-18 11:27:18 51°11.733 2°37.241 -999 3.471638 34.200401 0.35757
2008-12-18 11:28:18 51°11.89 2°37.389 -999 3.475056 34.215588 0.322746
2008-12-18 11:29:18 51°12.046 2°37.546 -999 3.477543 34.233529 0.322746
2008-12-18 11:30:18 51°12.206 2°37.69 -999 3.47889 34.248263 0.322746
2008-12-18 11:31:18 51°12.363 2°37.839 -999 3.478475 34.257633 0.35757
2008-12-18 11:32:18 51°12.523 2°37.982 -999 3.47485 34.253187 0.35757
2008-12-18 11:33:18 51°12.682 2°38.127 -999 3.471017 34.244612 0.35757
2008-12-18 11:34:18 51°12.839 2°38.28 -999 3.466459 34.230862 0.392394
2008-12-18 11:35:18 51°12.996 2°38.434 -999 3.460658 34.213678 0.427218
2008-12-18 11:36:18 51°13.156 2°38.58 -999 3.456929 34.198761 0.496866
2008-12-18 11:37:18 51°13.318 2°38.72 -999 3.45434 34.192636 0.462042
2008-12-18 11:38:18 51°13.482 2°38.853 -999 3.452889 34.185068 0.496866
2008-12-18 11:39:18 51°13.647 2°38.989 -999 3.45175 34.181848 0.462042
2008-12-18 11:40:18 51°13.813 2°39.123 -999 3.450818 34.180908 0.427218
2008-12-18 11:41:17 51°13.974 2°39.262 -999 3.450714 34.181632 0.427218
2008-12-18 11:42:17 51°14.136 2°39.409 -999 3.449886 34.184629 0.427218
2008-12-18 11:43:17 51°14.303 2°39.537 -999 3.449575 34.188669 0.392394
2008-12-18 11:44:17 51°14.476 2°39.646 -999 3.450196 34.191781 0.35757
2008-12-18 11:45:17 51°14.65 2°39.76 -999 3.4503 34.196653 0.35757
2008-12-18 11:46:17 51°14.821 2°39.881 -999 3.450611 34.200075 0.322746
2008-12-18 11:47:17 51°14.986 2°40.018 -999 3.45175 34.205157 0.322746
2008-12-18 11:48:17 51°15.147 2°40.164 -999 3.452268 34.209927 0.35757
2008-12-18 11:49:17 51°15.31 2°40.304 -999 3.452579 34.217082 0.287922
2008-12-18 11:50:17 51°15.47 2°40.452 -999 3.452786 34.220296 0.322746
2008-12-18 11:51:17 51°15.634 2°40.586 -999 3.452372 34.222269 0.287922
2008-12-18 11:52:17 51°15.795 2°40.731 -999 3.453097 34.22652 0.287922
2008-12-18 11:53:17 51°15.959 2°40.872 -999 3.453926 34.232844 0.253098
2008-12-18 11:54:18 51°16.125 2°41.016 -999 3.454755 34.244773 0.253098
2008-12-18 11:55:17 51°16.287 2°41.15 -999 3.456516 34.257627 0.287922
2008-12-18 11:56:18 51°16.454 2°41.291 -999 3.458069 34.272869 0.253098
2008-12-18 11:57:17 51°16.615 2°41.424 -999 3.458898 34.282931 0.253098
2008-12-18 11:58:17 51°16.775 2°41.57 -999 3.458691 34.297489 0.253098
2008-12-18 11:59:17 51°16.934 2°41.716 -999 3.457552 34.302722 0.287922
2008-12-18 12:00:18 51°17.094 2°41.865 -999 3.453408 34.287947 0.287922
2008-12-18 12:01:18 51°17.254 2°42.006 -999 3.442118 34.233603 0.35757
2008-12-18 12:02:17 51°17.405 2°42.156 -999 3.435695 34.189815 0.35757
2008-12-18 12:03:18 51°17.55 2°42.336 -999 3.421815 34.102813 0.35757
2008-12-18 12:04:17 51°17.632 2°42.583 -999 3.407728 34.017965 0.427218
2008-12-18 12:05:17 51°17.699 2°42.855 -999 3.39561 33.948166 0.462042
2008-12-18 12:06:17 51°17.795 2°43.106 -999 3.379245 33.847831 0.462042
2008-12-18 12:07:17 51°17.892 2°43.354 -999 3.361535 33.733105 0.53169
2008-12-18 12:08:17 51°17.986 2°43.604 -999 3.347243 33.641159 0.601338
2008-12-18 12:09:17 51°18.081 2°43.85 -999 3.332951 33.544289 0.70581
2008-12-18 12:10:18 51°18.176 2°44.104 -999 3.322388 33.47111 0.775459
2008-12-18 12:11:17 51°18.269 2°44.346 -999 3.314828 33.420192 0.879931
2008-12-18 12:12:18 51°18.372 2°44.587 -999 3.307164 33.361518 0.914755
2008-12-18 12:13:17 51°18.471 2°44.819 -999 3.301262 33.319692 0.949579
2008-12-18 12:14:17 51°18.565 2°45.06 -999 3.298051 33.296797 0.949579
2008-12-18 12:15:17 51°18.656 2°45.307 -999 3.291735 33.246545 0.845107
2008-12-18 12:16:17 51°18.751 2°45.547 -999 3.282415 33.165397 0.740634
2008-12-18 12:17:17 51°18.847 2°45.787 -999 3.262326 32.982953 0.740634
2008-12-18 12:18:17 51°18.942 2°46.027 -999 3.239856 32.792906 0.740634
2008-12-18 12:19:18 51°19.038 2°46.272 -999 3.217905 32.608234 0.879931
2008-12-18 12:20:17 51°19.131 2°46.511 -999 3.208587 32.532967 0.949579
2008-12-18 12:21:18 51°19.22 2°46.762 -999 3.199683 32.466848 1.054051
2008-12-18 12:22:17 51°19.306 2°47.009 -999 3.199269 32.458529 1.054051
2008-12-18 12:23:17 51°19.395 2°47.26 -999 3.194713 32.410087 1.054051
2008-12-18 12:24:17 51°19.482 2°47.51 -999 3.189847 32.367295 1.019227
2008-12-18 12:25:17 51°19.567 2°47.764 -999 3.186741 32.338786 1.019227
2008-12-18 12:26:17 51°19.655 2°48.015 -999 3.184567 32.307968 1.019227
2008-12-18 12:27:17 51°19.746 2°48.267 -999 3.179494 32.274673 1.019227
2008-12-18 12:28:18 51°19.838 2°48.524 -999 3.172557 32.216744 1.088875
2008-12-18 12:29:17 51°19.927 2°48.769 -999 3.164689 32.145564 1.158523
2008-12-18 12:30:18 51°20.018 2°49.026 -999 3.157753 32.084821 1.158523
2008-12-18 12:31:17 51°20.103 2°49.278 -999 3.154543 32.052355 1.123699
2008-12-18 12:32:17 51°20.192 2°49.53 -999 3.154232 32.039792 1.019227
2008-12-18 12:33:17 51°20.28 2°49.785 -999 3.149677 31.99673 0.984403
2008-12-18 12:34:17 51°20.369 2°50.036 -999 3.14947 31.984443 0.879931
2008-12-18 12:35:18 51°20.461 2°50.291 -999 3.1474 31.965693 0.845107
2008-12-18 12:36:17 51°20.563 2°50.523 -999 3.147089 31.961297 0.810283
2008-12-18 12:37:18 51°20.671 2°50.763 -999 3.14771 31.970089 0.740634
2008-12-18 12:38:17 51°20.77 2°51 -999 3.151437 32.010177 0.70581
2008-12-18 12:39:18 51°20.867 2°51.252 -999 3.150713 32.001124 0.70581
2008-12-18 12:40:17 51°20.966 2°51.488 -999 3.148642 31.985995 0.636162
2008-12-18 12:41:17 51°21.064 2°51.734 -999 3.149263 31.985736 0.670986
2008-12-18 12:42:17 51°21.16 2°51.982 -999 3.149884 31.990908 0.636162
2008-12-18 12:43:17 51°21.261 2°52.225 -999 3.150816 32.002288 0.670986
2008-12-18 12:44:18 51°21.362 2°52.473 -999 3.153922 32.022707 0.670986
2008-12-18 12:45:17 51°21.46 2°52.716 -999 3.15651 32.037298 0.70581
2008-12-18 12:46:18 51°21.561 2°52.964 -999 3.156613 32.033027 0.740634
2008-12-18 12:47:17 51°21.661 2°53.203 -999 3.157131 32.033409 0.775459
2008-12-18 12:48:18 51°21.761 2°53.453 -999 3.157545 32.031724 0.775459
2008-12-18 12:49:18 51°21.86 2°53.7 -999 3.154439 31.997754 0.845107
2008-12-18 12:50:17 51°21.924 2°53.969 -999 3.149159 31.948408 0.914755
2008-12-18 12:51:17 51°21.95 2°54.262 -999 3.150402 31.964165 0.914755
2008-12-18 12:52:17 51°21.975 2°54.558 -999 3.139635 31.868509 1.019227
2008-12-18 12:53:18 51°22 2°54.86 -999 3.112202 31.62317 1.158523
2008-12-18 12:54:17 51°22.041 2°55.143 -999 3.09947 31.510457 1.123699
2008-12-18 12:55:18 51°22.088 2°55.433 -999 3.09181 31.441287 1.158523
2008-12-18 12:56:17 51°22.127 2°55.715 -999 3.086013 31.392143 1.158523
2008-12-18 12:57:18 51°22.175 2°56.004 -999 3.07618 31.307336 1.228171
2008-12-18 12:58:18 51°22.228 2°56.288 -999 3.069762 31.248451 1.228171
2008-12-18 12:59:17 51°22.285 2°56.566 -999 3.064898 31.20169 1.228171
2008-12-18 13:00:18 51°22.346 2°56.852 -999 3.057652 31.129009 1.262995
2008-12-18 13:01:17 51°22.405 2°57.124 -999 3.051856 31.077934 1.297819
2008-12-18 13:02:18 51°22.462 2°57.41 -999 3.049682 31.061428 1.297819
2008-12-18 13:03:17 51°22.519 2°57.685 -999 3.043162 30.999503 1.332643
2008-12-18 13:04:18 51°22.577 2°57.97 -999 3.035089 30.926247 1.297819
2008-12-18 13:05:17 51°22.637 2°58.243 -999 3.035503 30.930909 1.297819
2008-12-18 13:06:18 51°22.724 2°58.51 -999 3.036538 30.940801 1.297819
2008-12-18 13:07:18 51°22.823 2°58.761 -999 3.040574 30.977432 1.402292
2008-12-18 13:08:17 51°22.926 2°59.003 -999 3.039643 30.971356 1.262995
2008-12-18 13:09:18 51°23.03 2°59.253 -999 3.049579 31.076196 1.402292
2008-12-18 13:10:17 51°23.128 2°59.501 -999 3.056824 31.163154 1.541588
2008-12-18 13:11:18 51°23.23 2°59.757 -999 3.060137 31.192484 1.506764
2008-12-18 13:12:17 51°23.332 3°0.003 -999 3.057963 31.175098 1.437116
2008-12-18 13:13:18 51°23.433 3°0.262 -999 3.056411 31.162041 1.367467
2008-12-18 13:14:18 51°23.535 3°0.517 -999 3.056824 31.158713 1.297819
2008-12-18 13:15:17 51°23.629 3°0.774 -999 3.0561 31.159429 1.297819
2008-12-18 13:16:18 51°23.732 3°1.037 -999 3.058584 31.181208 1.367467
2008-12-18 13:17:17 51°23.833 3°1.292 -999 3.063966 31.232976 1.367467
2008-12-18 13:18:18 51°23.935 3°1.561 -999 3.07235 31.302512 1.297819
2008-12-18 13:19:17 51°24.035 3°1.821 -999 3.081045 31.379045 1.297819
2008-12-18 13:20:18 51°24.143 3°2.089 -999 3.088084 31.437763 1.402292
2008-12-18 13:21:17 51°24.242 3°2.357 -999 3.091396 31.460749 1.332643
2008-12-18 13:22:18 51°24.318 3°2.653 -999 3.09357 31.483429 1.332643
2008-12-18 13:23:17 51°24.321 3°2.965 -999 3.097503 31.511592 1.367467
2008-12-18 13:24:17 51°24.23 3°3.261 -999 3.101126 31.535347 1.402292
2008-12-18 13:25:18 51°24.166 3°3.58 -999 3.102576 31.558816 1.437116
2008-12-18 13:26:17 51°24.118 3°3.895 -999 3.103404 31.565445 1.576412
2008-12-18 13:27:18 51°24.058 3°4.219 -999 3.1033 31.559801 1.541588
2008-12-18 13:28:18 51°24.006 3°4.54 -999 3.102162 31.561325 1.506764
2008-12-18 13:29:18 51°23.956 3°4.863 -999 3.102886 31.566791 1.437116
2008-12-18 13:30:18 51°23.91 3°5.189 -999 3.102679 31.574324 1.367467
2008-12-18 13:31:18 51°23.869 3°5.518 -999 3.103404 31.581584 1.367467
2008-12-18 13:32:18 51°23.83 3°5.848 -999 3.103922 31.590102 1.332643
2008-12-18 13:33:18 51°23.799 3°6.181 -999 3.106923 31.613125 1.332643
2008-12-18 13:34:18 51°23.781 3°6.517 -999 3.108373 31.62405 1.297819
2008-12-18 13:35:17 51°23.77 3°6.848 -999 3.106199 31.606764 1.262995
2008-12-18 13:36:18 51°23.768 3°7.189 -999 3.106199 31.604072 1.262995
2008-12-18 13:37:18 51°23.765 3°7.52 -999 3.087256 31.418614 1.262995
2008-12-18 13:38:18 51°23.74 3°7.843 -999 3.069659 31.249064 1.262995
2008-12-18 13:39:18 51°23.654 3°8.14 -999 3.053305 31.078317 1.228171
2008-12-18 13:40:18 51°23.562 3°8.434 -999 3.04461 30.998154 1.228171
2008-12-18 13:41:18 51°23.464 3°8.724 -999 3.037365 30.918394 1.262995
2008-12-18 13:42:17 51°23.376 3°9.014 -999 3.027015 30.813388 1.262995
2008-12-18 13:43:18 51°23.281 3°9.312 -999 3.020702 30.74413 1.297819
2008-12-18 13:44:18 51°23.187 3°9.601 -999 3.011594 30.653078 1.332643
2008-12-18 13:45:18 51°23.087 3°9.889 -999 3.005695 30.588491 1.297819
2008-12-18 13:46:17 51°22.989 3°10.17 -999 3.004142 30.574524 1.297819
2008-12-18 13:47:18 51°22.881 3°10.452 -999 3.003418 30.56725 1.437116
2008-12-18 13:48:18 51°22.77 3°10.731 -999 3.001969 30.536162 1.437116
2008-12-18 13:49:18 51°22.664 3°11.016 -999 3.009834 30.628056 1.541588
2008-12-18 13:50:18 51°22.583 3°11.206 -999 3.006626 30.591117 1.64606
2008-12-18 13:51:17 51°22.534 3°11.286 -999 2.981684 30.340321 1.750532
2008-12-18 13:52:18 51°22.508 3°11.328 -999 2.975475 30.274005 1.750532
2008-12-18 13:53:18 51°22.506 3°11.352 -999 2.975268 30.257007 1.750532
2008-12-18 13:54:18 51°22.506 3°11.378 -999 2.973819 30.246773 1.785356
2008-12-18 13:55:17 51°22.509 3°11.404 -999 2.972784 30.239462 1.750532
2008-12-18 13:56:18 51°22.512 3°11.432 -999 2.971853 30.235036 1.785356
2008-12-18 13:57:18 51°22.515 3°11.459 -999 2.971853 30.233311 1.750532
2008-12-18 13:58:18 51°22.519 3°11.487 -999 2.971439 30.232973 1.715708
2008-12-18 13:59:18 51°22.519 3°11.529 -999 2.971749 30.226975 1.715708
2008-12-18 14:00:18 51°22.543 3°11.624 -999 2.967299 30.188192 1.715708
2008-12-18 14:01:18 51°22.605 3°11.611 -999 2.96347 30.144322 1.750532
2008-12-18 14:02:18 51°22.597 3°11.515 -999 2.961194 30.127349 1.785356
2008-12-18 14:03:18 51°22.533 3°11.292 -999 2.966368 30.16482 1.785356
2008-12-18 14:04:18 51°22.453 3°11.019 -999 2.970197 30.201789 1.785356
2008-12-18 14:05:18 51°22.371 3°10.748 -999 2.969162 30.197918 1.750532
2008-12-18 14:06:18 51°22.281 3°10.477 -999 2.975268 30.258733 1.680884
2008-12-18 14:07:18 51°22.181 3°10.217 -999 2.980546 30.330123 1.64606
2008-12-18 14:08:18 51°22.086 3°9.955 -999 2.980442 30.322041 1.611236
2008-12-18 14:09:18 51°21.997 3°9.697 -999 2.971439 30.238149 1.611236
2008-12-18 14:10:18 51°21.943 3°9.582 -999 2.973923 30.261743 1.541588
2008-12-18 14:11:18 51°21.904 3°9.563 -999 2.978166 30.307698 1.576412
2008-12-18 14:12:18 51°21.858 3°9.543 -999 2.980753 30.324665 1.506764
2008-12-18 14:13:18 51°21.831 3°9.496 -999 2.979511 30.317628 1.541588
2008-12-18 14:14:18 51°21.822 3°9.431 -999 2.978787 30.313811 1.506764
2008-12-18 14:15:18 51°21.808 3°9.359 -999 2.980028 30.320849 1.506764
2008-12-18 14:16:18 51°21.791 3°9.307 -999 2.981995 30.342945 1.506764
2008-12-18 14:17:18 51°21.774 3°9.256 -999 2.982823 30.364374 1.47194
2008-12-18 14:18:18 51°21.757 3°9.2 -999 2.984686 30.37665 1.47194
2008-12-18 14:19:18 51°21.742 3°9.143 -999 2.985617 30.388854 1.47194
2008-12-18 14:20:18 51°21.726 3°9.089 -999 2.986135 30.397272 1.47194
2008-12-18 14:21:18 51°21.711 3°9.034 -999 2.98748 30.409796 1.437116
2008-12-18 14:22:18 51°21.695 3°8.981 -999 2.988929 30.42435 1.437116
2008-12-18 14:23:18 51°21.678 3°8.931 -999 2.98986 30.437427 1.437116
2008-12-18 14:24:18 51°21.661 3°8.881 -999 2.990792 30.447032 1.402292
2008-12-18 14:25:18 51°21.646 3°8.831 -999 2.991723 30.456637 1.402292
2008-12-18 14:26:18 51°21.63 3°8.781 -999 2.993172 30.469453 1.367467
2008-12-18 14:27:17 51°21.614 3°8.732 -999 2.994 30.480501 1.402292
2008-12-18 14:28:18 51°21.598 3°8.68 -999 2.994724 30.489518 1.402292
2008-12-18 14:29:18 51°21.581 3°8.63 -999 2.995759 30.503767 1.367467
2008-12-18 14:30:18 51°21.566 3°8.578 -999 2.997519 30.516592 1.367467
2008-12-18 14:31:18 51°21.551 3°8.526 -999 2.998657 30.53375 1.367467
2008-12-18 14:32:18 51°21.534 3°8.476 -999 2.999796 30.547427 1.332643
2008-12-18 14:33:18 51°21.516 3°8.421 -999 3.001245 30.561111 1.367467
2008-12-18 14:34:18 51°21.498 3°8.364 -999 3.002487 30.576826 1.367467
2008-12-18 14:35:18 51°21.48 3°8.307 -999 3.003728 30.588181 1.367467
2008-12-18 14:36:18 51°21.462 3°8.249 -999 3.00466 30.596914 1.332643
2008-12-18 14:37:18 51°21.444 3°8.192 -999 3.005281 30.605646 1.332643
2008-12-18 14:38:18 51°21.426 3°8.136 -999 3.006523 30.616126 1.332643
2008-12-18 14:39:18 51°21.409 3°8.08 -999 3.007558 30.627769 1.297819
2008-12-18 14:40:18 51°21.391 3°8.023 -999 3.008489 30.639123 1.332643
2008-12-18 14:41:18 51°21.373 3°7.967 -999 3.009628 30.651059 1.332643
2008-12-18 14:42:18 51°21.355 3°7.912 -999 3.010766 30.664743 1.332643
2008-12-18 14:43:18 51°21.365 3°7.862 -999 3.011801 30.673765 1.297819
2008-12-18 14:44:18 51°21.408 3°7.831 -999 3.012215 30.680174 1.332643
2008-12-18 14:45:18 51°21.462 3°7.857 -999 3.012112 30.675509 1.332643
2008-12-18 14:46:18 51°21.497 3°7.946 -999 3.012215 30.680174 1.297819
2008-12-18 14:47:18 51°21.499 3°8.054 -999 3.012733 30.685122 1.297819
2008-12-18 14:48:18 51°21.478 3°8.14 -999 3.012215 30.681049 1.297819
2008-12-18 14:49:18 51°21.455 3°8.198 -999 3.012008 30.676094 1.297819
2008-12-18 14:50:18 51°21.435 3°8.236 -999 3.011905 30.67318 1.297819
2008-12-18 14:51:18 51°21.409 3°8.249 -999 3.012008 30.674345 1.262995
2008-12-18 14:52:18 51°21.35 3°8.115 -999 3.013147 30.683655 1.297819
2008-12-18 14:53:18 51°21.255 3°7.902 -999 3.016665 30.696117 1.332643
2008-12-18 14:54:18 51°21.148 3°7.675 -999 3.022254 30.714341 1.332643
2008-12-18 14:55:18 51°21.041 3°7.446 -999 3.022461 30.726279 1.332643
2008-12-18 14:56:18 51°20.928 3°7.226 -999 3.017907 30.699587 1.332643
2008-12-18 14:57:18 51°20.82 3°7.001 -999 3.016769 30.690286 1.332643
2008-12-18 14:58:18 51°20.718 3°6.771 -999 3.020288 30.735096 1.402292
2008-12-18 14:59:18 51°20.618 3°6.545 -999 3.023703 30.775258 1.576412
2008-12-18 15:00:18 51°20.52 3°6.316 -999 3.021426 30.761042 1.64606
2008-12-18 15:01:18 51°20.421 3°6.087 -999 3.018114 30.726414 1.715708
2008-12-18 15:02:18 51°20.324 3°5.856 -999 3.01563 30.704599 1.750532
2008-12-18 15:03:18 51°20.232 3°5.62 -999 3.014285 30.691213 1.715708
2008-12-18 15:04:18 51°20.128 3°5.397 -999 3.014182 30.6953 1.750532
2008-12-18 15:05:18 51°20.021 3°5.178 -999 3.01532 30.701982 1.750532
2008-12-18 15:06:18 51°19.912 3°4.961 -999 3.016148 30.717427 1.750532
2008-12-18 15:07:18 51°19.802 3°4.746 -999 3.018632 30.74012 1.785356
2008-12-18 15:08:18 51°19.694 3°4.529 -999 3.021219 30.768359 1.785356
2008-12-18 15:09:18 51°19.589 3°4.312 -999 3.024428 30.801834 1.855004
2008-12-18 15:10:18 51°19.488 3°4.093 -999 3.025049 30.807944 1.855004
2008-12-18 15:11:18 51°19.387 3°3.877 -999 3.016873 30.742235 1.924652
2008-12-18 15:12:18 51°19.29 3°3.659 -999 3.007972 30.649036 1.9943
2008-12-18 15:13:18 51°19.196 3°3.436 -999 2.999278 30.565149 1.9943
2008-12-18 15:14:18 51°19.108 3°3.207 -999 2.994621 30.53016 2.029124
2008-12-18 15:15:18 51°19.016 3°2.982 -999 2.994104 30.527821 1.9943
2008-12-18 15:16:18 51°18.923 3°2.758 -999 2.993794 30.527814 1.9943
2008-12-18 15:17:18 51°18.829 3°2.536 -999 2.993587 30.528099 1.959476
2008-12-18 15:18:18 51°18.736 3°2.314 -999 2.993276 30.525474 1.9943
2008-12-18 15:19:18 51°18.643 3°2.094 -999 2.992034 30.513229 1.959476
2008-12-18 15:20:18 51°18.55 3°1.877 -999 2.989654 30.491646 1.959476
2008-12-18 15:21:18 51°18.458 3°1.656 -999 2.987481 30.473263 2.168421
2008-12-18 15:22:18 51°18.364 3°1.431 -999 2.987274 30.479646 3.561383
2008-12-18 15:23:18 51°18.268 3°1.208 -999 2.988102 30.489848 3.665855
2008-12-18 15:24:18 51°18.174 3°0.982 -999 2.989447 30.503267 3.735503
2008-12-18 15:25:18 51°18.078 3°0.757 -999 2.990585 30.513479 3.839975
2008-12-18 15:26:18 51°17.982 3°0.534 -999 2.99162 30.523397 3.874799
2008-12-18 15:27:18 51°17.886 3°0.316 -999 2.993897 30.537706 3.979271
2008-12-18 15:28:18 51°17.785 3°0.105 -999 2.994208 30.54819 3.874799
2008-12-18 15:29:18 51°17.687 2°59.893 -999 2.991103 30.529788 3.700679
2008-12-18 15:30:18 51°17.591 2°59.678 -999 2.989137 30.534701 3.143494
2008-12-18 15:31:18 51°17.497 2°59.462 -999 2.989965 30.554543 3.352439
2008-12-18 15:32:18 51°17.407 2°59.244 -999 2.989862 30.569138 2.899726
2008-12-18 15:33:18 51°17.308 2°59.033 -999 2.988206 30.567085 2.969374
2008-12-18 15:34:18 51°17.202 2°58.83 -999 2.987689 30.578779 3.039022
2008-12-18 15:35:18 51°17.102 2°58.617 -999 2.986861 30.577317 2.795254
2008-12-18 15:36:18 51°17.008 2°58.396 -999 2.987689 30.602492 2.795254
2008-12-18 15:37:18 51°16.913 2°58.173 -999 2.991932 30.644342 2.795254
2008-12-18 15:38:18 51°16.818 2°57.953 -999 2.997106 30.676467 2.690782
2008-12-18 15:39:18 51°16.722 2°57.732 -999 2.99545 30.638408 2.203245
2008-12-18 15:40:18 51°16.624 2°57.503 -999 2.99545 30.641922 2.551485
2008-12-18 15:41:18 51°16.523 2°57.273 -999 2.998038 30.692282 3.317614
2008-12-18 15:42:18 51°16.422 2°57.062 -999 3.002074 30.750287 3.178318
2008-12-18 15:43:18 51°16.33 2°56.841 -999 3.006007 30.808947 2.029124
2008-12-18 15:44:18 51°16.234 2°56.627 -999 3.009733 30.860891 1.64606
2008-12-18 15:45:18 51°16.136 2°56.414 -999 3.022464 30.98468 1.611236
2008-12-18 15:46:18 51°16.04 2°56.197 -999 3.044716 31.207335 1.541588
2008-12-18 15:47:18 51°15.938 2°55.988 -999 3.081254 31.560109 1.889828
2008-12-18 15:48:18 51°15.831 2°55.781 -999 3.104441 31.779238 2.238069
2008-12-18 15:49:18 51°15.717 2°55.589 -999 3.127836 32.004982 1.82018
2008-12-18 15:50:18 51°15.598 2°55.404 -999 3.139638 32.112062 1.297819
2008-12-18 15:51:18 51°15.465 2°55.237 -999 0.093976 0.750459 -0.93092
2008-12-18 15:52:18 51°15.309 2°55.125 -999 0.077715 0.615187 -0.896096
2008-12-18 15:53:18 51°15.144 2°55.042 -999 0.067938 0.534385 -0.861272
2008-12-18 15:54:18 51°14.981 2°54.956 -999 0.081523 0.644504 -0.861272
2008-12-18 15:55:18 51°14.822 2°54.868 -999 0.074731 0.587842 -0.861272
2008-12-18 15:56:18 51°14.646 2°54.886 -999 0.064645 0.504939 -0.861272
2008-12-18 15:57:18 51°14.47 2°54.968 -999 0.063101 0.491821 -0.861272
2008-12-18 15:58:18 51°14.322 2°55.171 -999 0.072466 0.567766 -0.861272
2008-12-18 15:59:18 51°14.176 2°55.375 -999 0.061763 0.479712 -0.861272